createdAt,value
2017-08-16T00:01:15.153Z,8.70
2017-08-16T00:03:42.685Z,10.43
2017-08-16T00:06:10.192Z,12.17
2017-08-16T00:08:37.719Z,13.60
2017-08-16T00:11:05.218Z,12.20
2017-08-16T00:13:32.740Z,11.13
2017-08-16T00:16:00.234Z,11.33
2017-08-16T00:18:27.764Z,7.63
2017-08-16T00:20:55.267Z,8.40
2017-08-16T00:23:22.798Z,5.17
2017-08-16T00:25:50.295Z,6.90
2017-08-16T00:28:17.815Z,7.93
2017-08-16T00:30:45.319Z,6.90
2017-08-16T00:33:13.587Z,5.67
2017-08-16T00:35:41.098Z,9.20
2017-08-16T00:38:08.595Z,9.70
2017-08-16T00:40:36.114Z,15.70
2017-08-16T00:45:54.366Z,12.70
2017-08-16T00:48:21.911Z,11.30
2017-08-16T00:50:49.415Z,10.00
2017-08-16T00:53:16.920Z,7.27
2017-08-16T00:55:45.205Z,8.67
2017-08-16T00:58:12.707Z,11.13
2017-08-16T01:00:40.235Z,8.73
2017-08-16T01:03:07.739Z,9.87
2017-08-16T01:05:35.238Z,9.67
2017-08-16T01:08:02.751Z,8.83
2017-08-16T01:10:30.275Z,10.07
2017-08-16T01:12:57.867Z,6.97
2017-08-16T01:15:25.387Z,10.30
2017-08-16T01:17:52.906Z,8.27
2017-08-16T01:20:21.184Z,8.53
2017-08-16T01:22:48.687Z,8.27
2017-08-16T01:25:16.208Z,8.73
2017-08-16T01:27:43.711Z,13.30
2017-08-16T01:30:11.226Z,7.77
2017-08-16T01:32:38.735Z,7.87
2017-08-16T01:35:06.255Z,5.40
2017-08-16T01:37:33.755Z,4.80
2017-08-16T01:40:01.254Z,8.80
2017-08-16T01:42:28.781Z,5.90
2017-08-16T01:44:56.283Z,6.40
2017-08-16T01:47:23.811Z,7.43
2017-08-16T01:49:51.311Z,6.73
2017-08-16T01:52:18.846Z,7.23
2017-08-16T01:54:46.343Z,6.20
2017-08-16T01:57:13.848Z,9.00
2017-08-16T01:59:41.368Z,8.10
2017-08-16T02:02:08.863Z,9.10
2017-08-16T02:04:36.371Z,9.43
2017-08-16T02:07:03.871Z,9.07
2017-08-16T02:09:31.382Z,7.30
2017-08-16T02:11:58.892Z,8.70
2017-08-16T02:14:26.410Z,8.10
2017-08-16T02:16:53.918Z,6.20
2017-08-16T02:19:22.271Z,6.47
2017-08-16T02:21:49.762Z,6.50
2017-08-16T02:24:17.283Z,6.23
2017-08-16T02:26:44.788Z,7.30
2017-08-16T02:29:12.312Z,9.00
2017-08-16T02:31:39.811Z,9.23
2017-08-16T02:34:07.306Z,6.70
2017-08-16T02:36:34.818Z,6.60
2017-08-16T02:39:02.320Z,8.63
2017-08-16T02:41:29.844Z,5.90
2017-08-16T02:43:57.343Z,5.20
2017-08-16T02:46:24.866Z,8.20
2017-08-16T02:48:52.359Z,6.50
2017-08-16T02:51:19.900Z,7.63
2017-08-16T02:53:47.403Z,8.17
2017-08-16T02:56:14.931Z,5.50
2017-08-16T02:58:42.463Z,6.73
2017-08-16T03:01:09.967Z,7.20
2017-08-16T03:03:37.478Z,7.07
2017-08-16T03:06:04.975Z,5.03
2017-08-16T03:08:32.519Z,5.57
2017-08-16T03:11:00.023Z,5.47
2017-08-16T03:13:27.527Z,5.10
2017-08-16T03:15:55.044Z,5.13
2017-08-16T03:18:22.555Z,9.07
2017-08-16T03:20:50.086Z,5.50
2017-08-16T03:23:17.591Z,11.83
2017-08-16T03:25:45.099Z,5.87
2017-08-16T03:28:12.618Z,5.10
2017-08-16T03:30:40.125Z,5.10
2017-08-16T03:33:07.651Z,8.27
2017-08-16T03:35:35.921Z,5.90
2017-08-16T03:38:04.194Z,4.80
2017-08-16T03:40:31.715Z,6.40
2017-08-16T03:42:59.215Z,5.83
2017-08-16T03:45:26.735Z,5.97
2017-08-16T03:47:54.241Z,6.73
2017-08-16T03:50:22.527Z,5.03
2017-08-16T03:52:50.043Z,6.10
2017-08-16T03:55:17.541Z,5.70
2017-08-16T03:57:45.063Z,5.00
2017-08-16T04:00:12.573Z,3.17
2017-08-16T04:02:40.092Z,3.03
2017-08-16T04:05:08.367Z,4.57
2017-08-16T04:07:35.887Z,3.60
2017-08-16T04:10:03.391Z,3.10
2017-08-16T04:12:30.916Z,5.63
2017-08-16T04:14:58.424Z,4.70
2017-08-16T04:17:25.952Z,3.57
2017-08-16T04:19:53.455Z,3.20
2017-08-16T04:22:20.959Z,6.00
2017-08-16T04:24:48.472Z,4.13
2017-08-16T04:27:15.979Z,4.43
2017-08-16T04:29:43.492Z,5.60
2017-08-16T04:32:11.005Z,8.90
2017-08-16T04:34:38.515Z,5.47
2017-08-16T04:37:06.018Z,4.37
2017-08-16T04:39:33.539Z,6.53
2017-08-16T04:42:01.035Z,5.90
2017-08-16T04:44:28.555Z,5.33
2017-08-16T04:46:56.051Z,6.63
2017-08-16T04:49:23.596Z,4.70
2017-08-16T04:51:51.100Z,5.30
2017-08-16T04:54:18.599Z,5.93
2017-08-16T04:56:46.123Z,8.30
2017-08-16T04:59:13.631Z,6.97
2017-08-16T05:01:41.168Z,4.90
2017-08-16T05:04:08.660Z,5.00
2017-08-16T05:06:36.155Z,7.90
2017-08-16T05:09:03.676Z,6.53
2017-08-16T05:11:31.175Z,5.13
2017-08-16T05:13:58.701Z,6.60
2017-08-16T05:16:26.210Z,4.67
2017-08-16T05:18:53.758Z,7.57
2017-08-16T05:21:21.267Z,6.93
2017-08-16T05:23:48.775Z,3.67
2017-08-16T05:26:16.288Z,7.63
2017-08-16T05:28:44.551Z,3.53
2017-08-16T05:31:12.064Z,4.13
2017-08-16T05:33:39.563Z,4.77
2017-08-16T05:36:07.080Z,3.50
2017-08-16T05:38:34.578Z,6.57
2017-08-16T05:41:02.083Z,6.97
2017-08-16T05:43:29.608Z,6.20
2017-08-16T05:45:57.104Z,5.17
2017-08-16T05:48:24.631Z,6.13
2017-08-16T05:50:52.899Z,6.20
2017-08-16T05:53:20.390Z,6.83
2017-08-16T05:55:47.910Z,4.80
2017-08-16T05:58:15.411Z,4.67
2017-08-16T06:00:42.940Z,4.73
2017-08-16T06:03:11.267Z,4.60
2017-08-16T06:05:38.810Z,5.37
2017-08-16T06:08:06.333Z,6.83
2017-08-16T06:10:33.844Z,4.80
2017-08-16T06:13:01.361Z,4.87
2017-08-16T06:15:28.863Z,5.03
2017-08-16T06:17:56.367Z,4.83
2017-08-16T06:20:24.652Z,9.63
2017-08-16T06:22:52.917Z,6.00
2017-08-16T06:25:21.219Z,5.63
2017-08-16T06:27:48.723Z,3.37
2017-08-16T06:30:16.228Z,4.33
2017-08-16T06:32:43.742Z,4.27
2017-08-16T06:35:11.243Z,4.10
2017-08-16T06:37:39.551Z,6.63
2017-08-16T06:40:07.063Z,6.03
2017-08-16T06:42:35.337Z,5.10
2017-08-16T06:45:03.632Z,4.30
2017-08-16T06:47:31.136Z,4.53
2017-08-16T06:49:58.631Z,6.17
2017-08-16T06:52:26.159Z,5.93
2017-08-16T06:54:53.654Z,6.27
2017-08-16T06:57:21.944Z,4.30
2017-08-16T06:59:49.438Z,5.00
2017-08-16T07:02:16.960Z,4.93
2017-08-16T07:04:44.460Z,6.50
2017-08-16T07:07:11.974Z,5.10
2017-08-16T07:09:39.471Z,5.53
2017-08-16T07:12:06.997Z,4.07
2017-08-16T07:14:34.504Z,6.80
2017-08-16T07:17:02.040Z,4.70
2017-08-16T07:19:29.568Z,3.13
2017-08-16T07:21:57.118Z,4.30
2017-08-16T07:24:24.614Z,4.03
2017-08-16T07:26:52.119Z,3.07
2017-08-16T07:29:19.639Z,5.23
2017-08-16T07:31:47.144Z,3.47
2017-08-16T07:34:14.663Z,4.37
2017-08-16T07:36:42.163Z,5.97
2017-08-16T07:39:10.447Z,6.30
2017-08-16T07:41:38.711Z,4.30
2017-08-16T07:44:07.007Z,7.23
2017-08-16T07:46:34.507Z,3.83
2017-08-16T07:49:02.027Z,4.43
2017-08-16T07:51:29.538Z,4.93
2017-08-16T07:53:57.067Z,4.03
2017-08-16T07:56:24.567Z,4.23
2017-08-16T07:58:52.115Z,5.73
2017-08-16T08:01:19.618Z,7.60
2017-08-16T08:03:47.119Z,3.60
2017-08-16T08:06:14.645Z,6.43
2017-08-16T08:08:42.142Z,3.47
2017-08-16T08:11:09.663Z,4.60
2017-08-16T08:13:37.159Z,3.50
2017-08-16T08:16:04.690Z,4.80
2017-08-16T08:18:32.190Z,5.20
2017-08-16T08:20:59.707Z,4.50
2017-08-16T08:23:27.208Z,5.07
2017-08-16T08:25:54.723Z,6.10
2017-08-16T08:28:22.228Z,4.37
2017-08-16T08:30:49.727Z,4.07
2017-08-16T08:33:17.244Z,3.80
2017-08-16T08:35:44.750Z,2.87
2017-08-16T08:38:12.271Z,3.50
2017-08-16T08:40:40.531Z,6.07
2017-08-16T08:43:08.054Z,6.67
2017-08-16T08:45:35.557Z,4.50
2017-08-16T08:48:03.083Z,3.57
2017-08-16T08:50:30.582Z,5.13
2017-08-16T08:52:58.868Z,7.20
2017-08-16T08:55:26.370Z,3.20
2017-08-16T08:57:53.896Z,4.27
2017-08-16T09:00:21.403Z,4.20
2017-08-16T09:02:48.903Z,2.50
2017-08-16T09:05:16.428Z,6.27
2017-08-16T09:07:43.973Z,4.90
2017-08-16T09:10:11.560Z,4.20
2017-08-16T09:12:39.846Z,4.10
2017-08-16T09:15:08.135Z,3.97
2017-08-16T09:17:35.639Z,3.67
2017-08-16T09:20:03.160Z,3.53
2017-08-16T09:22:30.659Z,4.00
2017-08-16T09:24:58.183Z,3.10
2017-08-16T09:27:25.683Z,3.60
2017-08-16T09:29:53.188Z,3.60
2017-08-16T09:32:20.702Z,3.77
2017-08-16T09:34:48.198Z,6.77
2017-08-16T09:37:15.714Z,9.50
2017-08-16T09:39:43.220Z,3.70
2017-08-16T09:42:10.744Z,3.00
2017-08-16T09:44:38.245Z,2.70
2017-08-16T09:47:05.767Z,2.60
2017-08-16T09:49:34.034Z,2.37
2017-08-16T09:52:01.554Z,2.20
2017-08-16T09:54:29.061Z,3.27
2017-08-16T09:56:57.355Z,6.30
2017-08-16T09:59:24.865Z,2.10
2017-08-16T10:01:52.363Z,3.00
2017-08-16T10:04:19.890Z,3.30
2017-08-16T10:06:47.391Z,2.20
2017-08-16T10:09:14.914Z,2.33
2017-08-16T10:11:42.416Z,3.70
2017-08-16T10:14:09.931Z,1.80
2017-08-16T10:16:37.436Z,2.30
2017-08-16T10:19:04.955Z,2.77
2017-08-16T10:21:33.233Z,2.77
2017-08-16T10:24:01.528Z,2.87
2017-08-16T10:26:29.044Z,3.50
2017-08-16T10:28:56.579Z,3.63
2017-08-16T10:31:24.074Z,2.17
2017-08-16T10:33:51.580Z,2.80
2017-08-16T10:36:19.108Z,2.13
2017-08-16T10:38:47.387Z,4.20
2017-08-16T10:41:15.679Z,3.57
2017-08-16T10:43:43.178Z,3.50
2017-08-16T10:46:10.694Z,5.30
2017-08-16T10:48:38.191Z,2.63
2017-08-16T10:51:05.706Z,2.63
2017-08-16T10:53:33.207Z,4.30
2017-08-16T10:56:00.737Z,3.00
2017-08-16T10:58:28.244Z,4.27
2017-08-16T11:00:55.777Z,2.60
2017-08-16T11:03:23.323Z,5.60
2017-08-16T11:05:50.856Z,11.00
2017-08-16T11:08:18.392Z,8.30
2017-08-16T11:10:46.659Z,2.37
2017-08-16T11:13:14.183Z,5.03
2017-08-16T11:15:41.688Z,4.47
2017-08-16T11:18:09.206Z,5.50
2017-08-16T11:20:36.710Z,3.80
2017-08-16T11:23:04.231Z,4.27
2017-08-16T11:25:31.735Z,3.30
2017-08-16T11:27:59.250Z,3.33
2017-08-16T11:30:26.748Z,5.33
2017-08-16T11:32:54.271Z,3.07
2017-08-16T11:35:21.766Z,4.33
2017-08-16T11:37:49.271Z,3.60
2017-08-16T11:40:17.643Z,5.83
2017-08-16T11:42:45.157Z,4.83
2017-08-16T11:45:13.449Z,3.10
2017-08-16T11:47:40.955Z,3.20
2017-08-16T11:50:08.480Z,8.47
2017-08-16T11:52:35.984Z,3.40
2017-08-16T11:55:03.511Z,6.53
2017-08-16T11:57:31.011Z,4.10
2017-08-16T11:59:59.308Z,4.17
2017-08-16T12:02:26.813Z,4.10
2017-08-16T12:04:54.319Z,5.87
2017-08-16T12:07:22.607Z,3.93
2017-08-16T12:09:50.107Z,4.80
2017-08-16T12:12:17.628Z,6.23
2017-08-16T12:14:45.123Z,4.37
2017-08-16T12:17:12.648Z,3.60
2017-08-16T12:19:40.163Z,4.47
2017-08-16T12:22:07.696Z,4.67
2017-08-16T12:24:35.215Z,4.27
2017-08-16T12:27:02.735Z,4.03
2017-08-16T12:29:30.236Z,5.57
2017-08-16T12:31:57.759Z,4.40
2017-08-16T12:34:25.257Z,3.87
2017-08-16T12:36:52.779Z,4.73
2017-08-16T12:39:20.281Z,5.10
2017-08-16T12:41:47.782Z,5.40
2017-08-16T12:44:15.307Z,4.87
2017-08-16T12:46:42.812Z,5.80
2017-08-16T12:49:10.348Z,4.60
2017-08-16T12:51:37.847Z,5.30
2017-08-16T12:54:05.368Z,5.23
2017-08-16T12:56:32.872Z,8.00
2017-08-16T12:59:00.423Z,4.20
2017-08-16T13:01:27.948Z,5.07
2017-08-16T13:03:55.551Z,4.40
2017-08-16T13:06:23.090Z,4.30
2017-08-16T13:08:51.382Z,4.27
2017-08-16T13:11:18.887Z,4.37
2017-08-16T13:13:46.391Z,5.17
2017-08-16T13:16:13.919Z,8.20
2017-08-16T13:18:41.423Z,7.13
2017-08-16T13:21:08.949Z,8.13
2017-08-16T13:23:37.228Z,5.47
2017-08-16T13:26:05.523Z,5.23
2017-08-16T13:28:33.036Z,5.10
2017-08-16T13:31:00.559Z,6.10
2017-08-16T13:33:28.059Z,4.03
2017-08-16T13:35:55.583Z,4.40
2017-08-16T13:38:23.088Z,4.77
2017-08-16T13:40:51.382Z,6.10
2017-08-16T13:43:19.651Z,5.87
2017-08-16T13:45:47.943Z,5.90
2017-08-16T13:48:15.456Z,5.30
2017-08-16T13:50:42.959Z,5.47
2017-08-16T13:53:10.486Z,4.30
2017-08-16T13:55:37.986Z,6.43
2017-08-16T13:58:05.507Z,5.23
2017-08-16T14:00:33.011Z,4.50
2017-08-16T14:03:00.540Z,7.20
2017-08-16T14:05:28.068Z,4.27
2017-08-16T14:07:55.594Z,6.70
2017-08-16T14:10:23.096Z,5.57
2017-08-16T14:12:50.624Z,6.27
2017-08-16T14:15:18.131Z,4.80
2017-08-16T14:17:46.438Z,5.13
2017-08-16T14:20:13.946Z,5.30
2017-08-16T14:22:41.474Z,5.00
2017-08-16T14:25:08.983Z,5.00
2017-08-16T14:27:37.276Z,4.47
2017-08-16T14:30:04.780Z,4.43
2017-08-16T14:32:32.280Z,4.33
2017-08-16T14:34:59.808Z,7.27
2017-08-16T14:37:27.306Z,7.17
2017-08-16T14:39:54.827Z,5.73
2017-08-16T14:42:22.331Z,4.70
2017-08-16T14:44:49.851Z,7.30
2017-08-16T14:47:17.394Z,6.60
2017-08-16T14:49:44.919Z,6.57
2017-08-16T14:52:12.415Z,6.67
2017-08-16T14:54:39.939Z,5.03
2017-08-16T14:57:07.462Z,4.83
2017-08-16T14:59:34.995Z,5.17
2017-08-16T15:02:02.511Z,4.67
2017-08-16T15:04:30.015Z,4.90
2017-08-16T15:06:57.535Z,5.70
2017-08-16T15:09:25.044Z,5.93
2017-08-16T15:11:53.336Z,5.93
2017-08-16T15:14:20.839Z,4.70
2017-08-16T15:16:48.367Z,7.77
2017-08-16T15:19:15.877Z,4.70
2017-08-16T15:21:43.405Z,4.60
2017-08-16T15:24:10.911Z,5.70
2017-08-16T15:26:39.200Z,6.27
2017-08-16T15:29:06.704Z,7.07
2017-08-16T15:31:34.218Z,7.70
2017-08-16T15:34:01.720Z,4.90
2017-08-16T15:36:29.227Z,5.90
2017-08-16T15:38:57.516Z,5.93
2017-08-16T15:41:25.018Z,7.33
2017-08-16T15:43:52.542Z,11.73
2017-08-16T15:46:20.038Z,7.40
2017-08-16T15:48:47.565Z,9.00
2017-08-16T15:51:15.071Z,6.50
2017-08-16T15:53:42.662Z,5.70
2017-08-16T15:56:10.170Z,6.83
2017-08-16T15:58:37.691Z,5.37
2017-08-16T16:01:05.191Z,8.23
2017-08-16T16:03:32.720Z,6.20
2017-08-16T16:06:00.223Z,6.63
2017-08-16T16:08:27.734Z,14.33
2017-08-16T16:10:55.257Z,4.80
2017-08-16T16:13:23.532Z,5.90
2017-08-16T16:15:51.820Z,5.30
2017-08-16T16:18:20.095Z,6.03
2017-08-16T16:20:47.619Z,7.80
2017-08-16T16:23:15.120Z,8.47
2017-08-16T16:25:42.652Z,6.10
2017-08-16T16:28:10.927Z,5.07
2017-08-16T16:30:39.213Z,5.17
2017-08-16T16:33:07.488Z,4.70
2017-08-16T16:35:35.755Z,8.83
2017-08-16T16:38:04.043Z,4.93
2017-08-16T16:40:32.310Z,4.60
2017-08-16T16:42:59.843Z,8.27
2017-08-16T16:45:27.349Z,5.90
2017-08-16T16:47:54.867Z,6.87
2017-08-16T16:50:22.371Z,5.13
2017-08-16T16:52:49.897Z,9.00
2017-08-16T16:55:17.404Z,8.80
2017-08-16T16:57:44.937Z,8.27
2017-08-16T17:00:12.444Z,6.13
2017-08-16T17:02:39.999Z,7.77
2017-08-16T17:05:07.516Z,7.10
2017-08-16T17:07:35.029Z,5.67
2017-08-16T17:10:02.589Z,8.07
2017-08-16T17:12:30.103Z,6.03
2017-08-16T17:14:57.635Z,6.37
2017-08-16T17:17:25.912Z,11.80
2017-08-16T17:19:53.437Z,6.50
2017-08-16T17:22:20.943Z,6.03
2017-08-16T17:24:48.472Z,7.43
2017-08-16T17:27:15.981Z,8.53
2017-08-16T17:29:43.520Z,10.47
2017-08-16T17:32:11.036Z,6.13
2017-08-16T17:34:38.555Z,7.07
2017-08-16T17:37:06.065Z,9.20
2017-08-16T17:39:33.575Z,10.73
2017-08-16T17:42:01.104Z,7.20
2017-08-16T17:44:28.608Z,7.60
2017-08-16T17:46:56.131Z,7.37
2017-08-16T17:49:23.647Z,7.73
2017-08-16T17:51:51.175Z,6.23
2017-08-16T17:54:18.684Z,10.40
2017-08-16T17:56:46.981Z,9.10
2017-08-16T17:59:14.495Z,8.00
2017-08-16T18:01:42.023Z,7.73
2017-08-16T18:04:09.533Z,6.00
2017-08-16T18:06:37.824Z,7.93
2017-08-16T18:09:05.319Z,7.20
2017-08-16T18:11:32.840Z,6.93
2017-08-16T18:14:00.343Z,8.23
2017-08-16T18:16:27.867Z,11.70
2017-08-16T18:18:55.380Z,6.53
2017-08-16T18:21:22.907Z,6.40
2017-08-16T18:23:50.407Z,6.80
2017-08-16T18:26:17.915Z,9.60
2017-08-16T18:28:45.446Z,13.73
2017-08-16T18:31:13.715Z,15.10
2017-08-16T18:33:41.244Z,12.80
2017-08-16T18:36:08.747Z,7.07
2017-08-16T18:38:36.276Z,9.37
2017-08-16T18:41:03.774Z,6.57
2017-08-16T18:43:31.299Z,9.03
2017-08-16T18:45:59.580Z,8.20
2017-08-16T18:48:27.863Z,7.40
2017-08-16T18:50:56.127Z,8.70
2017-08-16T18:53:24.427Z,7.20
2017-08-16T18:55:51.944Z,7.00
2017-08-16T18:58:19.444Z,7.53
2017-08-16T19:00:46.962Z,11.83
2017-08-16T19:03:14.467Z,7.70
2017-08-16T19:05:41.992Z,10.47
2017-08-16T19:08:09.495Z,7.90
2017-08-16T19:10:37.022Z,7.63
2017-08-16T19:13:04.536Z,7.33
2017-08-16T19:15:32.056Z,8.07
2017-08-16T19:17:59.572Z,10.73
2017-08-16T19:20:27.117Z,9.70
2017-08-16T19:22:54.619Z,9.10
2017-08-16T19:25:22.140Z,8.17
2017-08-16T19:27:49.641Z,9.33
2017-08-16T19:30:17.863Z,11.37
2017-08-16T19:32:45.389Z,9.73
2017-08-16T19:35:12.899Z,10.07
2017-08-16T19:37:40.423Z,8.63
2017-08-16T19:40:07.931Z,18.47
2017-08-16T19:42:35.451Z,7.30
2017-08-16T19:45:02.960Z,9.60
2017-08-16T19:47:30.475Z,8.70
2017-08-16T19:49:57.979Z,7.77
2017-08-16T19:52:25.506Z,10.40
2017-08-16T19:54:53.004Z,9.67
2017-08-16T19:57:20.538Z,16.33
2017-08-16T19:59:48.054Z,10.50
2017-08-16T20:02:15.583Z,8.43
2017-08-16T20:04:43.095Z,10.60
2017-08-16T20:07:10.598Z,7.90
2017-08-16T20:09:38.122Z,7.53
2017-08-16T20:12:06.405Z,8.23
2017-08-16T20:14:34.705Z,11.60
2017-08-16T20:17:02.219Z,18.47
2017-08-16T20:19:29.738Z,10.60
2017-08-16T20:21:57.243Z,15.17
2017-08-16T20:24:24.763Z,11.50
2017-08-16T20:26:52.272Z,12.87
2017-08-16T20:29:19.800Z,7.93
2017-08-16T20:31:47.297Z,9.27
2017-08-16T20:34:15.592Z,9.13
2017-08-16T20:36:43.101Z,12.70
2017-08-16T20:39:10.634Z,11.23
2017-08-16T20:41:38.135Z,10.27
2017-08-16T20:44:05.647Z,10.77
2017-08-16T20:46:33.172Z,12.60
2017-08-16T20:49:00.696Z,8.97
2017-08-16T20:51:28.228Z,11.83
2017-08-16T20:53:55.731Z,11.93
2017-08-16T20:56:23.259Z,8.97
2017-08-16T20:58:50.759Z,10.50
2017-08-16T21:01:19.039Z,9.33
2017-08-16T21:03:46.543Z,9.70
2017-08-16T21:06:14.067Z,9.13
2017-08-16T21:08:41.578Z,12.97
2017-08-16T21:11:09.101Z,12.13
2017-08-16T21:13:36.609Z,14.80
2017-08-16T21:16:04.904Z,9.80
2017-08-16T21:18:33.179Z,11.53
2017-08-16T21:21:00.711Z,8.03
2017-08-16T21:23:28.216Z,10.93
2017-08-16T21:25:55.719Z,9.10
2017-08-16T21:28:23.236Z,8.93
2017-08-16T21:30:50.750Z,8.67
2017-08-16T21:33:18.271Z,10.33
2017-08-16T21:35:45.781Z,9.13
2017-08-16T21:38:14.075Z,10.90
2017-08-16T21:40:41.588Z,10.40
2017-08-16T21:43:09.113Z,9.97
2017-08-16T21:45:36.612Z,9.87
2017-08-16T21:48:04.136Z,11.70
2017-08-16T21:50:31.640Z,8.03
2017-08-16T21:52:59.936Z,10.90
2017-08-16T21:55:27.439Z,8.30
2017-08-16T21:57:54.947Z,11.63
2017-08-16T22:00:23.237Z,11.37
2017-08-16T22:02:50.743Z,12.00
2017-08-16T22:05:18.265Z,9.57
2017-08-16T22:07:45.775Z,8.57
2017-08-16T22:10:13.299Z,8.50
2017-08-16T22:12:40.804Z,9.27
2017-08-16T22:15:09.107Z,10.83
2017-08-16T22:17:36.612Z,13.73
2017-08-16T22:20:04.142Z,8.00
2017-08-16T22:22:31.648Z,8.23
2017-08-16T22:24:59.956Z,8.80
2017-08-16T22:27:27.463Z,10.20
2017-08-16T22:29:54.969Z,11.70
2017-08-16T22:32:22.496Z,9.40
2017-08-16T22:34:50.000Z,8.63
2017-08-16T22:37:17.528Z,11.47
2017-08-16T22:39:45.038Z,10.70
2017-08-16T22:42:12.567Z,10.03
2017-08-16T22:44:40.072Z,11.17
2017-08-16T22:47:07.604Z,10.67
2017-08-16T22:49:35.116Z,13.33
2017-08-16T22:52:02.650Z,10.97
2017-08-16T22:54:30.159Z,12.97
2017-08-16T22:56:57.683Z,15.10
2017-08-16T22:59:25.952Z,14.00
2017-08-16T23:01:53.491Z,11.00
2017-08-16T23:04:20.990Z,11.60
2017-08-16T23:06:48.508Z,13.20
2017-08-16T23:09:16.027Z,17.23
2017-08-16T23:11:43.536Z,9.97
2017-08-16T23:14:11.070Z,12.97
2017-08-16T23:16:38.575Z,12.53
2017-08-16T23:19:06.112Z,12.87
2017-08-16T23:21:33.616Z,12.87
2017-08-16T23:24:01.139Z,14.10
2017-08-16T23:26:29.414Z,12.30
2017-08-16T23:28:57.716Z,12.57
2017-08-16T23:31:25.233Z,13.10
2017-08-16T23:33:52.761Z,12.77
2017-08-16T23:36:20.268Z,11.10
2017-08-16T23:38:48.562Z,11.80
2017-08-16T23:41:16.068Z,15.20
2017-08-16T23:43:43.584Z,12.60
2017-08-16T23:46:11.116Z,13.57
2017-08-16T23:48:38.620Z,13.40
2017-08-16T23:51:06.145Z,15.10
2017-08-16T23:53:33.651Z,11.63
2017-08-16T23:56:01.175Z,8.97
2017-08-16T23:58:28.679Z,9.97
